sensor_id;sensor_type;location;lat;lon;timestamp;temperature;humidity
69823;SHT31;57119;52.516;13.508;2023-09-30T00:00:58;16.66;99.99
69823;SHT31;57119;52.516;13.508;2023-09-30T00:03:24;16.71;99.99
69823;SHT31;57119;52.516;13.508;2023-09-30T00:05:49;16.67;99.99
69823;SHT31;57119;52.516;13.508;2023-09-30T00:08:15;16.60;99.99
69823;SHT31;57119;52.516;13.508;2023-09-30T00:10:40;16.63;99.99
69823;SHT31;57119;52.516;13.508;2023-09-30T00:13:05;16.57;99.99
69823;SHT31;57119;52.516;13.508;2023-09-30T00:15:32;16.64;99.99
69823;SHT31;57119;52.516;13.508;2023-09-30T00:17:58;16.59;99.99
69823;SHT31;57119;52.516;13.508;2023-09-30T00:20:23;16.53;99.99
69823;SHT31;57119;52.516;13.508;2023-09-30T00:22:49;16.56;99.99
69823;SHT31;57119;52.516;13.508;2023-09-30T00:25:14;16.50;99.99
69823;SHT31;57119;52.516;13.508;2023-09-30T00:27:40;16.43;99.99
69823;SHT31;57119;52.516;13.508;2023-09-30T00:30:06;16.43;99.99
69823;SHT31;57119;52.516;13.508;2023-09-30T00:32:31;16.30;98.23
69823;SHT31;57119;52.516;13.508;2023-09-30T00:34:58;16.21;98.43
69823;SHT31;57119;52.516;13.508;2023-09-30T00:37:24;16.18;98.40
69823;SHT31;57119;52.516;13.508;2023-09-30T00:39:49;16.09;98.12
69823;SHT31;57119;52.516;13.508;2023-09-30T00:42:14;16.04;97.47
69823;SHT31;57119;52.516;13.508;2023-09-30T00:44:40;15.95;97.34
69823;SHT31;57119;52.516;13.508;2023-09-30T00:47:05;15.90;97.15
69823;SHT31;57119;52.516;13.508;2023-09-30T00:49:32;15.71;96.81
69823;SHT31;57119;52.516;13.508;2023-09-30T00:51:58;15.64;96.71
69823;SHT31;57119;52.516;13.508;2023-09-30T00:54:26;15.50;96.76
69823;SHT31;57119;52.516;13.508;2023-09-30T00:56:52;15.37;96.81
69823;SHT31;57119;52.516;13.508;2023-09-30T00:59:20;15.32;96.11
69823;SHT31;57119;52.516;13.508;2023-09-30T01:01:46;15.23;96.24
69823;SHT31;57119;52.516;13.508;2023-09-30T01:04:12;15.15;95.92
69823;SHT31;57119;52.516;13.508;2023-09-30T01:06:38;15.05;96.15
69823;SHT31;57119;52.516;13.508;2023-09-30T01:09:04;14.92;96.34
69823;SHT31;57119;52.516;13.508;2023-09-30T01:11:29;14.84;96.38
69823;SHT31;57119;52.516;13.508;2023-09-30T01:13:55;14.71;96.66
69823;SHT31;57119;52.516;13.508;2023-09-30T01:16:21;14.65;96.90
69823;SHT31;57119;52.516;13.508;2023-09-30T01:18:46;14.67;96.42
69823;SHT31;57119;52.516;13.508;2023-09-30T01:21:12;14.63;96.37
69823;SHT31;57119;52.516;13.508;2023-09-30T01:23:37;14.57;96.46
69823;SHT31;57119;52.516;13.508;2023-09-30T01:26:12;14.48;96.84
69823;SHT31;57119;52.516;13.508;2023-09-30T01:28:39;14.51;96.41
69823;SHT31;57119;52.516;13.508;2023-09-30T01:31:05;14.48;96.51
69823;SHT31;57119;52.516;13.508;2023-09-30T01:33:30;14.41;96.71
69823;SHT31;57119;52.516;13.508;2023-09-30T01:35:57;14.38;96.97
69823;SHT31;57119;52.516;13.508;2023-09-30T01:38:22;14.29;97.34
69823;SHT31;57119;52.516;13.508;2023-09-30T01:40:48;14.20;97.72
69823;SHT31;57119;52.516;13.508;2023-09-30T01:43:13;14.09;98.26
69823;SHT31;57119;52.516;13.508;2023-09-30T01:45:42;14.03;98.49
69823;SHT31;57119;52.516;13.508;2023-09-30T01:48:09;14.02;98.88
69823;SHT31;57119;52.516;13.508;2023-09-30T01:50:38;13.93;99.36
69823;SHT31;57119;52.516;13.508;2023-09-30T01:53:04;13.86;99.50
69823;SHT31;57119;52.516;13.508;2023-09-30T01:55:32;13.82;99.80
69823;SHT31;57119;52.516;13.508;2023-09-30T01:57:58;13.83;99.95
69823;SHT31;57119;52.516;13.508;2023-09-30T02:00:23;13.81;99.99
69823;SHT31;57119;52.516;13.508;2023-09-30T02:02:48;13.75;99.99
69823;SHT31;57119;52.516;13.508;2023-09-30T02:05:13;13.66;99.99
69823;SHT31;57119;52.516;13.508;2023-09-30T02:07:39;13.72;99.99
69823;SHT31;57119;52.516;13.508;2023-09-30T02:10:05;13.69;99.99
69823;SHT31;57119;52.516;13.508;2023-09-30T02:12:30;13.68;99.99
69823;SHT31;57119;52.516;13.508;2023-09-30T02:14:58;13.65;99.99
69823;SHT31;57119;52.516;13.508;2023-09-30T02:17:23;13.63;99.99
69823;SHT31;57119;52.516;13.508;2023-09-30T02:19:49;13.62;99.99
69823;SHT31;57119;52.516;13.508;2023-09-30T02:22:15;13.61;99.99
69823;SHT31;57119;52.516;13.508;2023-09-30T02:24:40;13.69;99.99
69823;SHT31;57119;52.516;13.508;2023-09-30T02:27:06;13.71;99.99
69823;SHT31;57119;52.516;13.508;2023-09-30T02:29:31;13.61;99.99
69823;SHT31;57119;52.516;13.508;2023-09-30T02:31:58;13.58;99.99
69823;SHT31;57119;52.516;13.508;2023-09-30T02:34:23;13.48;99.99
69823;SHT31;57119;52.516;13.508;2023-09-30T02:36:49;13.45;99.99
69823;SHT31;57119;52.516;13.508;2023-09-30T02:39:14;13.44;99.99
69823;SHT31;57119;52.516;13.508;2023-09-30T02:41:41;13.41;99.99
69823;SHT31;57119;52.516;13.508;2023-09-30T02:44:07;13.41;99.99
69823;SHT31;57119;52.516;13.508;2023-09-30T02:46:32;13.42;99.99
69823;SHT31;57119;52.516;13.508;2023-09-30T02:48:57;13.42;99.99
69823;SHT31;57119;52.516;13.508;2023-09-30T02:51:23;13.35;99.99
69823;SHT31;57119;52.516;13.508;2023-09-30T02:53:50;13.33;99.99
69823;SHT31;57119;52.516;13.508;2023-09-30T02:56:15;13.28;99.99
69823;SHT31;57119;52.516;13.508;2023-09-30T02:58:41;13.30;99.99
69823;SHT31;57119;52.516;13.508;2023-09-30T03:01:06;13.27;99.99
69823;SHT31;57119;52.516;13.508;2023-09-30T03:03:32;13.28;99.99
69823;SHT31;57119;52.516;13.508;2023-09-30T03:05:59;13.28;99.99
69823;SHT31;57119;52.516;13.508;2023-09-30T03:08:25;13.21;99.99
69823;SHT31;57119;52.516;13.508;2023-09-30T03:10:51;13.25;99.99
69823;SHT31;57119;52.516;13.508;2023-09-30T03:13:16;13.17;99.99
69823;SHT31;57119;52.516;13.508;2023-09-30T03:15:44;13.23;99.99
69823;SHT31;57119;52.516;13.508;2023-09-30T03:18:09;13.23;99.99
69823;SHT31;57119;52.516;13.508;2023-09-30T03:20:34;13.24;99.99
69823;SHT31;57119;52.516;13.508;2023-09-30T03:23:01;13.25;99.99
69823;SHT31;57119;52.516;13.508;2023-09-30T03:25:29;13.18;99.99
69823;SHT31;57119;52.516;13.508;2023-09-30T03:27:55;13.08;99.99
69823;SHT31;57119;52.516;13.508;2023-09-30T03:30:22;13.11;99.99
69823;SHT31;57119;52.516;13.508;2023-09-30T03:32:47;13.03;99.99
69823;SHT31;57119;52.516;13.508;2023-09-30T03:35:12;13.03;99.99
69823;SHT31;57119;52.516;13.508;2023-09-30T03:37:45;13.00;99.99
69823;SHT31;57119;52.516;13.508;2023-09-30T03:40:11;13.06;99.99
69823;SHT31;57119;52.516;13.508;2023-09-30T03:42:42;13.08;99.99
69823;SHT31;57119;52.516;13.508;2023-09-30T03:45:08;13.03;99.99
69823;SHT31;57119;52.516;13.508;2023-09-30T03:47:35;12.99;99.99
69823;SHT31;57119;52.516;13.508;2023-09-30T03:50:01;12.92;99.99
69823;SHT31;57119;52.516;13.508;2023-09-30T03:52:30;13.03;99.99
69823;SHT31;57119;52.516;13.508;2023-09-30T03:54:58;13.03;99.99
69823;SHT31;57119;52.516;13.508;2023-09-30T03:57:24;13.02;99.99
69823;SHT31;57119;52.516;13.508;2023-09-30T03:59:49;13.06;99.99
69823;SHT31;57119;52.516;13.508;2023-09-30T04:02:14;13.04;99.99
69823;SHT31;57119;52.516;13.508;2023-09-30T04:04:40;12.99;99.99
69823;SHT31;57119;52.516;13.508;2023-09-30T04:07:06;12.96;99.99
69823;SHT31;57119;52.516;13.508;2023-09-30T04:09:35;12.90;99.99
69823;SHT31;57119;52.516;13.508;2023-09-30T04:12:01;12.92;99.99
69823;SHT31;57119;52.516;13.508;2023-09-30T04:14:26;12.86;99.99
69823;SHT31;57119;52.516;13.508;2023-09-30T04:16:51;12.86;99.99
69823;SHT31;57119;52.516;13.508;2023-09-30T04:19:19;12.89;99.99
69823;SHT31;57119;52.516;13.508;2023-09-30T04:21:45;12.83;99.99
69823;SHT31;57119;52.516;13.508;2023-09-30T04:24:11;12.82;99.99
69823;SHT31;57119;52.516;13.508;2023-09-30T04:26:37;12.87;99.99
69823;SHT31;57119;52.516;13.508;2023-09-30T04:29:03;12.90;99.99
69823;SHT31;57119;52.516;13.508;2023-09-30T04:31:29;12.85;99.99
69823;SHT31;57119;52.516;13.508;2023-09-30T04:33:55;12.83;99.99
69823;SHT31;57119;52.516;13.508;2023-09-30T04:36:23;12.82;99.99
69823;SHT31;57119;52.516;13.508;2023-09-30T04:38:48;12.77;99.99
69823;SHT31;57119;52.516;13.508;2023-09-30T04:41:13;12.75;99.99
69823;SHT31;57119;52.516;13.508;2023-09-30T04:43:41;12.67;99.99
69823;SHT31;57119;52.516;13.508;2023-09-30T04:46:06;12.62;99.99
69823;SHT31;57119;52.516;13.508;2023-09-30T04:48:34;12.56;99.99
69823;SHT31;57119;52.516;13.508;2023-09-30T04:51:00;12.59;99.99
69823;SHT31;57119;52.516;13.508;2023-09-30T04:53:25;12.59;99.99
69823;SHT31;57119;52.516;13.508;2023-09-30T04:55:51;12.59;99.99
69823;SHT31;57119;52.516;13.508;2023-09-30T04:58:17;12.50;99.99
69823;SHT31;57119;52.516;13.508;2023-09-30T05:00:42;12.49;99.99
69823;SHT31;57119;52.516;13.508;2023-09-30T05:03:08;12.48;99.99
69823;SHT31;57119;52.516;13.508;2023-09-30T05:05:33;12.46;99.99
69823;SHT31;57119;52.516;13.508;2023-09-30T05:07:59;12.49;99.99
69823;SHT31;57119;52.516;13.508;2023-09-30T05:10:25;12.44;99.99
69823;SHT31;57119;52.516;13.508;2023-09-30T05:12:50;12.44;99.99
69823;SHT31;57119;52.516;13.508;2023-09-30T05:15:20;12.45;99.99
69823;SHT31;57119;52.516;13.508;2023-09-30T05:17:45;12.42;99.99
69823;SHT31;57119;52.516;13.508;2023-09-30T05:20:11;12.41;99.99
69823;SHT31;57119;52.516;13.508;2023-09-30T05:22:39;12.42;99.99
69823;SHT31;57119;52.516;13.508;2023-09-30T05:25:07;12.46;99.99
69823;SHT31;57119;52.516;13.508;2023-09-30T05:27:32;12.44;99.99
69823;SHT31;57119;52.516;13.508;2023-09-30T05:29:58;12.52;99.99
69823;SHT31;57119;52.516;13.508;2023-09-30T05:32:23;12.50;99.99
69823;SHT31;57119;52.516;13.508;2023-09-30T05:34:48;12.56;99.99
69823;SHT31;57119;52.516;13.508;2023-09-30T05:37:14;12.63;99.99
69823;SHT31;57119;52.516;13.508;2023-09-30T05:39:39;12.66;99.99
69823;SHT31;57119;52.516;13.508;2023-09-30T05:42:05;12.76;99.99
69823;SHT31;57119;52.516;13.508;2023-09-30T05:44:32;12.85;99.99
69823;SHT31;57119;52.516;13.508;2023-09-30T05:46:57;12.93;99.99
69823;SHT31;57119;52.516;13.508;2023-09-30T05:49:25;13.06;99.99
69823;SHT31;57119;52.516;13.508;2023-09-30T05:51:50;13.15;99.99
69823;SHT31;57119;52.516;13.508;2023-09-30T05:54:16;13.25;99.99
69823;SHT31;57119;52.516;13.508;2023-09-30T05:56:41;13.38;99.99
69823;SHT31;57119;52.516;13.508;2023-09-30T05:59:09;13.48;99.99
69823;SHT31;57119;52.516;13.508;2023-09-30T06:01:34;13.59;99.99
69823;SHT31;57119;52.516;13.508;2023-09-30T06:04:01;13.78;99.99
69823;SHT31;57119;52.516;13.508;2023-09-30T06:06:27;13.90;99.99
69823;SHT31;57119;52.516;13.508;2023-09-30T06:08:55;13.99;99.99
69823;SHT31;57119;52.516;13.508;2023-09-30T06:11:23;14.08;99.99
69823;SHT31;57119;52.516;13.508;2023-09-30T06:13:56;14.19;99.99
69823;SHT31;57119;52.516;13.508;2023-09-30T06:16:25;14.33;99.99
69823;SHT31;57119;52.516;13.508;2023-09-30T06:18:52;14.48;99.99
69823;SHT31;57119;52.516;13.508;2023-09-30T06:21:17;14.64;99.99
69823;SHT31;57119;52.516;13.508;2023-09-30T06:23:49;14.79;99.54
69823;SHT31;57119;52.516;13.508;2023-09-30T06:26:17;15.00;99.28
69823;SHT31;57119;52.516;13.508;2023-09-30T06:28:42;14.93;98.96
69823;SHT31;57119;52.516;13.508;2023-09-30T06:31:08;14.98;99.11
69823;SHT31;57119;52.516;13.508;2023-09-30T06:33:37;14.78;98.77
69823;SHT31;57119;52.516;13.508;2023-09-30T06:36:13;14.81;98.31
69823;SHT31;57119;52.516;13.508;2023-09-30T06:38:40;14.81;98.79
69823;SHT31;57119;52.516;13.508;2023-09-30T06:41:07;14.72;98.88
69823;SHT31;57119;52.516;13.508;2023-09-30T06:43:33;14.50;99.10
69823;SHT31;57119;52.516;13.508;2023-09-30T06:46:05;14.56;99.04
69823;SHT31;57119;52.516;13.508;2023-09-30T06:48:32;14.65;98.84
69823;SHT31;57119;52.516;13.508;2023-09-30T06:50:58;14.84;98.51
69823;SHT31;57119;52.516;13.508;2023-09-30T06:53:24;14.88;97.97
69823;SHT31;57119;52.516;13.508;2023-09-30T06:55:49;14.96;98.12
69823;SHT31;57119;52.516;13.508;2023-09-30T06:58:16;14.98;97.56
69823;SHT31;57119;52.516;13.508;2023-09-30T07:00:46;15.02;97.36
69823;SHT31;57119;52.516;13.508;2023-09-30T07:03:12;15.08;97.37
69823;SHT31;57119;52.516;13.508;2023-09-30T07:05:39;15.13;96.98
69823;SHT31;57119;52.516;13.508;2023-09-30T07:08:05;14.99;97.16
69823;SHT31;57119;52.516;13.508;2023-09-30T07:10:30;14.99;97.28
69823;SHT31;57119;52.516;13.508;2023-09-30T07:12:56;15.10;96.97
69823;SHT31;57119;52.516;13.508;2023-09-30T07:15:22;15.50;96.04
69823;SHT31;57119;52.516;13.508;2023-09-30T07:17:47;15.50;95.48
69823;SHT31;57119;52.516;13.508;2023-09-30T07:20:13;15.90;94.58
69823;SHT31;57119;52.516;13.508;2023-09-30T07:22:39;16.45;93.01
69823;SHT31;57119;52.516;13.508;2023-09-30T07:25:04;16.38;92.54
69823;SHT31;57119;52.516;13.508;2023-09-30T07:27:30;16.50;92.42
69823;SHT31;57119;52.516;13.508;2023-09-30T07:29:55;16.23;93.35
69823;SHT31;57119;52.516;13.508;2023-09-30T07:32:21;16.36;93.25
69823;SHT31;57119;52.516;13.508;2023-09-30T07:34:50;16.52;92.62
69823;SHT31;57119;52.516;13.508;2023-09-30T07:37:16;16.57;92.51
69823;SHT31;57119;52.516;13.508;2023-09-30T07:39:43;16.64;92.31
69823;SHT31;57119;52.516;13.508;2023-09-30T07:42:09;16.69;91.99
69823;SHT31;57119;52.516;13.508;2023-09-30T07:44:34;16.88;91.57
69823;SHT31;57119;52.516;13.508;2023-09-30T07:47:02;16.70;91.26
69823;SHT31;57119;52.516;13.508;2023-09-30T07:49:29;16.45;92.38
69823;SHT31;57119;52.516;13.508;2023-09-30T07:51:54;16.15;92.67
69823;SHT31;57119;52.516;13.508;2023-09-30T07:54:20;16.21;92.87
69823;SHT31;57119;52.516;13.508;2023-09-30T07:56:45;16.43;93.02
69823;SHT31;57119;52.516;13.508;2023-09-30T07:59:10;16.49;92.41
69823;SHT31;57119;52.516;13.508;2023-09-30T08:01:36;16.19;92.90
69823;SHT31;57119;52.516;13.508;2023-09-30T08:04:02;16.39;92.89
69823;SHT31;57119;52.516;13.508;2023-09-30T08:06:28;16.16;93.31
69823;SHT31;57119;52.516;13.508;2023-09-30T08:08:53;16.13;93.54
69823;SHT31;57119;52.516;13.508;2023-09-30T08:11:20;16.13;93.46
69823;SHT31;57119;52.516;13.508;2023-09-30T08:13:46;16.19;93.31
69823;SHT31;57119;52.516;13.508;2023-09-30T08:16:12;16.21;93.13
69823;SHT31;57119;52.516;13.508;2023-09-30T08:18:37;16.11;93.12
69823;SHT31;57119;52.516;13.508;2023-09-30T08:21:03;16.18;92.93
69823;SHT31;57119;52.516;13.508;2023-09-30T08:23:30;16.69;92.34
69823;SHT31;57119;52.516;13.508;2023-09-30T08:25:58;17.07;90.85
69823;SHT31;57119;52.516;13.508;2023-09-30T08:28:23;17.67;89.57
69823;SHT31;57119;52.516;13.508;2023-09-30T08:30:49;18.28;88.35
69823;SHT31;57119;52.516;13.508;2023-09-30T08:33:16;18.35;87.36
69823;SHT31;57119;52.516;13.508;2023-09-30T08:35:41;19.69;84.69
69823;SHT31;57119;52.516;13.508;2023-09-30T08:38:07;20.54;82.16
69823;SHT31;57119;52.516;13.508;2023-09-30T08:40:32;21.06;80.58
69823;SHT31;57119;52.516;13.508;2023-09-30T08:42:57;21.63;79.06
69823;SHT31;57119;52.516;13.508;2023-09-30T08:45:27;21.80;78.91
69823;SHT31;57119;52.516;13.508;2023-09-30T08:47:53;20.90;79.59
69823;SHT31;57119;52.516;13.508;2023-09-30T08:50:20;19.24;82.84
69823;SHT31;57119;52.516;13.508;2023-09-30T08:52:46;18.93;83.97
69823;SHT31;57119;52.516;13.508;2023-09-30T08:55:11;20.27;82.33
69823;SHT31;57119;52.516;13.508;2023-09-30T08:57:39;21.33;79.68
69823;SHT31;57119;52.516;13.508;2023-09-30T09:00:06;20.48;79.80
69823;SHT31;57119;52.516;13.508;2023-09-30T09:02:34;19.27;82.92
69823;SHT31;57119;52.516;13.508;2023-09-30T09:05:01;19.04;84.14
69823;SHT31;57119;52.516;13.508;2023-09-30T09:07:26;18.69;84.61
69823;SHT31;57119;52.516;13.508;2023-09-30T09:10:06;19.98;82.57
69823;SHT31;57119;52.516;13.508;2023-09-30T09:12:34;22.07;78.27
69823;SHT31;57119;52.516;13.508;2023-09-30T09:15:00;23.07;74.64
69823;SHT31;57119;52.516;13.508;2023-09-30T09:17:40;23.85;72.91
69823;SHT31;57119;52.516;13.508;2023-09-30T09:20:06;23.81;72.32
69823;SHT31;57119;52.516;13.508;2023-09-30T09:22:53;25.11;69.93
69823;SHT31;57119;52.516;13.508;2023-09-30T09:25:22;24.78;70.02
69823;SHT31;57119;52.516;13.508;2023-09-30T09:27:53;24.92;69.47
69823;SHT31;57119;52.516;13.508;2023-09-30T09:30:26;24.48;70.36
69823;SHT31;57119;52.516;13.508;2023-09-30T09:35:21;23.79;71.60
69823;SHT31;57119;52.516;13.508;2023-09-30T09:38:04;25.27;69.05
69823;SHT31;57119;52.516;13.508;2023-09-30T09:40:31;26.56;66.37
69823;SHT31;57119;52.516;13.508;2023-09-30T09:42:58;26.06;66.60
69823;SHT31;57119;52.516;13.508;2023-09-30T09:45:26;26.04;67.33
69823;SHT31;57119;52.516;13.508;2023-09-30T09:47:53;26.33;65.69
69823;SHT31;57119;52.516;13.508;2023-09-30T09:50:20;27.20;64.24
69823;SHT31;57119;52.516;13.508;2023-09-30T09:52:50;27.88;63.16
69823;SHT31;57119;52.516;13.508;2023-09-30T09:55:17;26.80;64.18
69823;SHT31;57119;52.516;13.508;2023-09-30T09:57:43;26.22;65.52
69823;SHT31;57119;52.516;13.508;2023-09-30T10:00:11;25.15;67.85
69823;SHT31;57119;52.516;13.508;2023-09-30T10:02:40;25.60;65.70
69823;SHT31;57119;52.516;13.508;2023-09-30T10:05:06;26.57;64.37
69823;SHT31;57119;52.516;13.508;2023-09-30T10:07:38;26.82;64.76
69823;SHT31;57119;52.516;13.508;2023-09-30T10:10:11;25.30;66.16
69823;SHT31;57119;52.516;13.508;2023-09-30T10:12:39;26.00;66.27
69823;SHT31;57119;52.516;13.508;2023-09-30T10:20:32;26.46;63.17
69823;SHT31;57119;52.516;13.508;2023-09-30T10:23:21;25.33;65.23
69823;SHT31;57119;52.516;13.508;2023-09-30T10:25:49;24.78;66.44
69823;SHT31;57119;52.516;13.508;2023-09-30T10:31:12;24.91;65.39
69823;SHT31;57119;52.516;13.508;2023-09-30T10:36:29;25.29;64.41
69823;SHT31;57119;52.516;13.508;2023-09-30T10:38:55;25.47;63.61
69823;SHT31;57119;52.516;13.508;2023-09-30T10:41:50;26.57;62.25
69823;SHT31;57119;52.516;13.508;2023-09-30T10:47:53;24.24;65.03
69823;SHT31;57119;52.516;13.508;2023-09-30T10:49:53;21.86;68.89
69823;SHT31;57119;52.516;13.508;2023-09-30T10:52:22;24.33;65.70
69823;SHT31;57119;52.516;13.508;2023-09-30T10:54:50;24.94;65.28
69823;SHT31;57119;52.516;13.508;2023-09-30T10:57:36;24.69;64.30
69823;SHT31;57119;52.516;13.508;2023-09-30T11:00:09;23.71;66.64
69823;SHT31;57119;52.516;13.508;2023-09-30T11:02:47;22.96;67.55
69823;SHT31;57119;52.516;13.508;2023-09-30T11:05:13;24.71;64.37
69823;SHT31;57119;52.516;13.508;2023-09-30T11:07:39;25.88;63.49
69823;SHT31;57119;52.516;13.508;2023-09-30T11:10:06;25.93;61.84
69823;SHT31;57119;52.516;13.508;2023-09-30T11:12:31;25.23;62.89
69823;SHT31;57119;52.516;13.508;2023-09-30T11:15:02;24.05;66.05
69823;SHT31;57119;52.516;13.508;2023-09-30T11:17:27;23.24;67.44
69823;SHT31;57119;52.516;13.508;2023-09-30T11:19:53;23.79;66.31
69823;SHT31;57119;52.516;13.508;2023-09-30T11:22:19;23.38;66.90
69823;SHT31;57119;52.516;13.508;2023-09-30T11:24:45;24.96;64.44
69823;SHT31;57119;52.516;13.508;2023-09-30T11:27:11;27.00;61.09
69823;SHT31;57119;52.516;13.508;2023-09-30T11:29:36;27.85;58.64
69823;SHT31;57119;52.516;13.508;2023-09-30T11:32:02;27.90;58.27
69823;SHT31;57119;52.516;13.508;2023-09-30T11:34:33;28.37;57.81
69823;SHT31;57119;52.516;13.508;2023-09-30T11:37:00;26.93;58.77
69823;SHT31;57119;52.516;13.508;2023-09-30T11:39:27;24.74;62.77
69823;SHT31;57119;52.516;13.508;2023-09-30T11:41:53;23.82;65.54
69823;SHT31;57119;52.516;13.508;2023-09-30T11:44:20;25.64;63.15
69823;SHT31;57119;52.516;13.508;2023-09-30T11:47:02;25.50;63.08
69823;SHT31;57119;52.516;13.508;2023-09-30T11:49:34;25.80;62.08
69823;SHT31;57119;52.516;13.508;2023-09-30T11:52:10;25.78;62.62
69823;SHT31;57119;52.516;13.508;2023-09-30T11:57:10;25.45;63.42
69823;SHT31;57119;52.516;13.508;2023-09-30T11:59:36;24.41;65.79
69823;SHT31;57119;52.516;13.508;2023-09-30T12:02:04;23.37;66.90
69823;SHT31;57119;52.516;13.508;2023-09-30T12:04:34;22.96;68.30
69823;SHT31;57119;52.516;13.508;2023-09-30T12:07:00;22.46;68.88
69823;SHT31;57119;52.516;13.508;2023-09-30T12:09:25;22.01;70.37
69823;SHT31;57119;52.516;13.508;2023-09-30T12:11:53;21.90;70.35
69823;SHT31;57119;52.516;13.508;2023-09-30T12:14:19;22.58;68.48
69823;SHT31;57119;52.516;13.508;2023-09-30T12:16:46;22.31;68.22
69823;SHT31;57119;52.516;13.508;2023-09-30T12:19:16;22.00;69.39
69823;SHT31;57119;52.516;13.508;2023-09-30T12:21:43;21.94;69.19
69823;SHT31;57119;52.516;13.508;2023-09-30T12:24:10;21.81;69.92
69823;SHT31;57119;52.516;13.508;2023-09-30T12:26:36;21.73;69.65
69823;SHT31;57119;52.516;13.508;2023-09-30T12:29:06;21.66;70.46
69823;SHT31;57119;52.516;13.508;2023-09-30T12:31:31;21.71;70.34
69823;SHT31;57119;52.516;13.508;2023-09-30T12:33:58;22.01;70.19
69823;SHT31;57119;52.516;13.508;2023-09-30T12:36:25;24.10;66.70
69823;SHT31;57119;52.516;13.508;2023-09-30T12:38:50;25.33;64.32
69823;SHT31;57119;52.516;13.508;2023-09-30T12:41:15;26.31;62.57
69823;SHT31;57119;52.516;13.508;2023-09-30T12:43:41;27.55;60.16
69823;SHT31;57119;52.516;13.508;2023-09-30T12:46:08;28.03;60.01
69823;SHT31;57119;52.516;13.508;2023-09-30T12:48:34;26.55;61.65
69823;SHT31;57119;52.516;13.508;2023-09-30T12:50:59;24.50;64.19
69823;SHT31;57119;52.516;13.508;2023-09-30T12:53:25;23.66;65.21
69823;SHT31;57119;52.516;13.508;2023-09-30T12:55:50;24.64;64.68
69823;SHT31;57119;52.516;13.508;2023-09-30T12:58:15;26.38;61.96
69823;SHT31;57119;52.516;13.508;2023-09-30T13:00:41;27.03;60.82
69823;SHT31;57119;52.516;13.508;2023-09-30T13:03:06;26.86;60.01
69823;SHT31;57119;52.516;13.508;2023-09-30T13:05:33;26.94;60.51
69823;SHT31;57119;52.516;13.508;2023-09-30T13:07:58;27.55;59.64
69823;SHT31;57119;52.516;13.508;2023-09-30T13:10:24;27.66;58.23
69823;SHT31;57119;52.516;13.508;2023-09-30T13:12:50;26.00;59.43
69823;SHT31;57119;52.516;13.508;2023-09-30T13:15:16;25.73;61.25
69823;SHT31;57119;52.516;13.508;2023-09-30T13:17:45;26.99;59.23
69823;SHT31;57119;52.516;13.508;2023-09-30T13:20:11;27.65;57.91
69823;SHT31;57119;52.516;13.508;2023-09-30T13:22:40;26.94;58.39
69823;SHT31;57119;52.516;13.508;2023-09-30T13:25:06;27.17;57.91
69823;SHT31;57119;52.516;13.508;2023-09-30T13:27:33;27.10;57.60
69823;SHT31;57119;52.516;13.508;2023-09-30T13:29:58;27.11;56.76
69823;SHT31;57119;52.516;13.508;2023-09-30T13:32:27;27.07;57.31
69823;SHT31;57119;52.516;13.508;2023-09-30T13:34:53;26.53;57.80
69823;SHT31;57119;52.516;13.508;2023-09-30T13:37:19;27.10;57.70
69823;SHT31;57119;52.516;13.508;2023-09-30T13:39:44;26.09;59.19
69823;SHT31;57119;52.516;13.508;2023-09-30T13:42:10;26.75;58.78
69823;SHT31;57119;52.516;13.508;2023-09-30T13:44:35;26.39;58.78
69823;SHT31;57119;52.516;13.508;2023-09-30T13:47:01;26.53;58.28
69823;SHT31;57119;52.516;13.508;2023-09-30T13:49:27;26.21;58.40
69823;SHT31;57119;52.516;13.508;2023-09-30T13:51:52;26.53;56.88
69823;SHT31;57119;52.516;13.508;2023-09-30T13:54:17;25.85;57.30
69823;SHT31;57119;52.516;13.508;2023-09-30T13:56:43;26.56;57.44
69823;SHT31;57119;52.516;13.508;2023-09-30T13:59:09;26.08;56.90
69823;SHT31;57119;52.516;13.508;2023-09-30T14:01:35;26.21;57.23
69823;SHT31;57119;52.516;13.508;2023-09-30T14:04:00;26.14;57.67
69823;SHT31;57119;52.516;13.508;2023-09-30T14:06:26;26.17;57.65
69823;SHT31;57119;52.516;13.508;2023-09-30T14:08:51;26.59;57.08
69823;SHT31;57119;52.516;13.508;2023-09-30T14:11:18;26.70;56.79
69823;SHT31;57119;52.516;13.508;2023-09-30T14:13:43;26.29;57.70
69823;SHT31;57119;52.516;13.508;2023-09-30T14:16:09;26.04;58.16
69823;SHT31;57119;52.516;13.508;2023-09-30T14:18:34;26.38;58.45
69823;SHT31;57119;52.516;13.508;2023-09-30T14:21:01;26.12;58.00
69823;SHT31;57119;52.516;13.508;2023-09-30T14:23:27;26.01;57.74
69823;SHT31;57119;52.516;13.508;2023-09-30T14:25:54;26.26;57.33
69823;SHT31;57119;52.516;13.508;2023-09-30T14:28:20;26.75;57.18
69823;SHT31;57119;52.516;13.508;2023-09-30T14:30:46;26.36;56.12
69823;SHT31;57119;52.516;13.508;2023-09-30T14:33:11;26.45;57.27
69823;SHT31;57119;52.516;13.508;2023-09-30T14:35:36;25.94;56.70
69823;SHT31;57119;52.516;13.508;2023-09-30T14:38:05;25.95;56.12
69823;SHT31;57119;52.516;13.508;2023-09-30T14:40:35;24.41;58.89
69823;SHT31;57119;52.516;13.508;2023-09-30T14:43:01;24.85;57.86
69823;SHT31;57119;52.516;13.508;2023-09-30T14:45:30;23.89;58.46
69823;SHT31;57119;52.516;13.508;2023-09-30T14:47:56;23.78;58.92
69823;SHT31;57119;52.516;13.508;2023-09-30T14:50:21;24.14;58.42
69823;SHT31;57119;52.516;13.508;2023-09-30T14:52:47;23.76;59.07
69823;SHT31;57119;52.516;13.508;2023-09-30T14:55:12;23.08;60.58
69823;SHT31;57119;52.516;13.508;2023-09-30T14:57:38;22.18;62.05
69823;SHT31;57119;52.516;13.508;2023-09-30T15:00:04;22.25;62.51
69823;SHT31;57119;52.516;13.508;2023-09-30T15:02:31;22.66;62.26
69823;SHT31;57119;52.516;13.508;2023-09-30T15:04:56;22.79;61.86
69823;SHT31;57119;52.516;13.508;2023-09-30T15:07:22;23.06;61.99
69823;SHT31;57119;52.516;13.508;2023-09-30T15:09:47;23.38;61.26
69823;SHT31;57119;52.516;13.508;2023-09-30T15:12:13;22.76;62.14
69823;SHT31;57119;52.516;13.508;2023-09-30T15:14:38;22.83;62.47
69823;SHT31;57119;52.516;13.508;2023-09-30T15:17:03;22.99;62.66
69823;SHT31;57119;52.516;13.508;2023-09-30T15:19:29;22.62;63.53
69823;SHT31;57119;52.516;13.508;2023-09-30T15:21:54;23.07;62.40
69823;SHT31;57119;52.516;13.508;2023-09-30T15:24:19;22.79;63.01
69823;SHT31;57119;52.516;13.508;2023-09-30T15:26:45;22.82;63.02
69823;SHT31;57119;52.516;13.508;2023-09-30T15:29:10;22.70;63.33
69823;SHT31;57119;52.516;13.508;2023-09-30T15:31:36;22.70;63.09